sensor_id;sensor_type;location;lat;lon;timestamp;P1;durP1;ratioP1;P2;durP2;ratioP2
11854;SDS011;5987;53.140;8.904;2022-12-29T00:02:51;6.87;;;4.87;;
11854;SDS011;5987;53.140;8.904;2022-12-29T00:05:55;6.27;;;5.73;;
11854;SDS011;5987;53.140;8.904;2022-12-29T00:09:00;5.93;;;5.43;;
11854;SDS011;5987;53.140;8.904;2022-12-29T00:12:05;5.80;;;5.30;;
11854;SDS011;5987;53.140;8.904;2022-12-29T00:15:09;5.63;;;4.93;;
11854;SDS011;5987;53.140;8.904;2022-12-29T00:18:26;5.77;;;5.07;;
11854;SDS011;5987;53.140;8.904;2022-12-29T00:21:30;5.50;;;4.70;;
11854;SDS011;5987;53.140;8.904;2022-12-29T00:25:00;6.37;;;5.53;;
11854;SDS011;5987;53.140;8.904;2022-12-29T00:28:23;5.43;;;4.93;;
11854;SDS011;5987;53.140;8.904;2022-12-29T00:31:44;6.63;;;5.43;;
11854;SDS011;5987;53.140;8.904;2022-12-29T00:35:06;5.40;;;4.90;;
11854;SDS011;5987;53.140;8.904;2022-12-29T00:38:13;6.20;;;5.60;;
11854;SDS011;5987;53.140;8.904;2022-12-29T00:41:46;6.90;;;6.20;;
11854;SDS011;5987;53.140;8.904;2022-12-29T00:45:28;6.60;;;5.93;;
11854;SDS011;5987;53.140;8.904;2022-12-29T00:48:32;6.63;;;6.03;;
11854;SDS011;5987;53.140;8.904;2022-12-29T00:51:52;6.77;;;6.13;;
11854;SDS011;5987;53.140;8.904;2022-12-29T00:54:58;6.80;;;6.10;;
11854;SDS011;5987;53.140;8.904;2022-12-29T00:58:02;7.10;;;6.40;;
11854;SDS011;5987;53.140;8.904;2022-12-29T01:01:07;7.10;;;6.50;;
11854;SDS011;5987;53.140;8.904;2022-12-29T01:04:12;8.77;;;6.00;;
11854;SDS011;5987;53.140;8.904;2022-12-29T01:07:16;7.60;;;6.90;;
11854;SDS011;5987;53.140;8.904;2022-12-29T01:10:20;7.27;;;6.57;;
11854;SDS011;5987;53.140;8.904;2022-12-29T01:13:22;7.80;;;7.10;;
11854;SDS011;5987;53.140;8.904;2022-12-29T01:16:27;8.53;;;7.23;;
11854;SDS011;5987;53.140;8.904;2022-12-29T01:19:31;7.80;;;7.00;;
11854;SDS011;5987;53.140;8.904;2022-12-29T01:22:35;7.50;;;6.80;;
11854;SDS011;5987;53.140;8.904;2022-12-29T01:25:39;8.53;;;7.00;;
11854;SDS011;5987;53.140;8.904;2022-12-29T01:28:43;8.07;;;7.00;;
11854;SDS011;5987;53.140;8.904;2022-12-29T01:31:48;6.53;;;5.90;;
11854;SDS011;5987;53.140;8.904;2022-12-29T01:34:52;6.73;;;6.13;;
11854;SDS011;5987;53.140;8.904;2022-12-29T01:37:56;6.23;;;5.67;;
11854;SDS011;5987;53.140;8.904;2022-12-29T01:41:00;6.63;;;6.13;;
11854;SDS011;5987;53.140;8.904;2022-12-29T01:47:55;5.73;;;5.23;;
11854;SDS011;5987;53.140;8.904;2022-12-29T01:51:04;5.73;;;5.23;;
11854;SDS011;5987;53.140;8.904;2022-12-29T01:54:08;5.80;;;5.20;;
11854;SDS011;5987;53.140;8.904;2022-12-29T01:57:16;7.40;;;4.93;;
11854;SDS011;5987;53.140;8.904;2022-12-29T02:00:25;6.00;;;5.40;;
11854;SDS011;5987;53.140;8.904;2022-12-29T02:03:30;6.47;;;5.83;;
11854;SDS011;5987;53.140;8.904;2022-12-29T02:06:37;5.90;;;5.50;;
11854;SDS011;5987;53.140;8.904;2022-12-29T02:09:49;7.40;;;5.67;;
11854;SDS011;5987;53.140;8.904;2022-12-29T02:12:54;6.67;;;5.50;;
11854;SDS011;5987;53.140;8.904;2022-12-29T02:16:00;5.87;;;5.37;;
11854;SDS011;5987;53.140;8.904;2022-12-29T02:19:35;5.80;;;5.30;;
11854;SDS011;5987;53.140;8.904;2022-12-29T02:23:30;6.03;;;5.53;;
11854;SDS011;5987;53.140;8.904;2022-12-29T02:27:24;6.10;;;5.50;;
11854;SDS011;5987;53.140;8.904;2022-12-29T02:30:58;6.10;;;5.60;;
11854;SDS011;5987;53.140;8.904;2022-12-29T02:34:16;6.97;;;5.60;;
11854;SDS011;5987;53.140;8.904;2022-12-29T02:37:37;5.87;;;5.27;;
11854;SDS011;5987;53.140;8.904;2022-12-29T02:40:51;5.13;;;4.73;;
11854;SDS011;5987;53.140;8.904;2022-12-29T02:44:07;5.60;;;5.20;;
11854;SDS011;5987;53.140;8.904;2022-12-29T02:47:23;5.10;;;4.70;;
11854;SDS011;5987;53.140;8.904;2022-12-29T02:50:39;5.70;;;5.20;;
11854;SDS011;5987;53.140;8.904;2022-12-29T02:53:52;5.23;;;4.83;;
11854;SDS011;5987;53.140;8.904;2022-12-29T02:57:26;5.50;;;5.10;;
11854;SDS011;5987;53.140;8.904;2022-12-29T03:00:34;5.73;;;5.23;;
11854;SDS011;5987;53.140;8.904;2022-12-29T03:03:54;5.30;;;4.90;;
11854;SDS011;5987;53.140;8.904;2022-12-29T03:07:20;6.33;;;5.30;;
11854;SDS011;5987;53.140;8.904;2022-12-29T03:10:37;5.40;;;5.00;;
11854;SDS011;5987;53.140;8.904;2022-12-29T03:13:56;4.97;;;4.47;;
11854;SDS011;5987;53.140;8.904;2022-12-29T03:17:28;4.83;;;4.43;;
11854;SDS011;5987;53.140;8.904;2022-12-29T03:20:44;4.43;;;4.13;;
11854;SDS011;5987;53.140;8.904;2022-12-29T03:23:57;4.60;;;4.20;;
11854;SDS011;5987;53.140;8.904;2022-12-29T03:27:01;4.47;;;4.07;;
11854;SDS011;5987;53.140;8.904;2022-12-29T03:30:09;4.10;;;3.80;;
11854;SDS011;5987;53.140;8.904;2022-12-29T03:33:17;3.67;;;3.00;;
11854;SDS011;5987;53.140;8.904;2022-12-29T03:36:27;3.00;;;2.80;;
11854;SDS011;5987;53.140;8.904;2022-12-29T03:39:40;2.93;;;2.73;;
11854;SDS011;5987;53.140;8.904;2022-12-29T03:42:45;2.97;;;2.77;;
11854;SDS011;5987;53.140;8.904;2022-12-29T03:45:51;3.33;;;3.10;;
11854;SDS011;5987;53.140;8.904;2022-12-29T03:48:54;2.50;;;2.30;;
11854;SDS011;5987;53.140;8.904;2022-12-29T03:52:00;2.40;;;2.30;;
11854;SDS011;5987;53.140;8.904;2022-12-29T03:55:04;2.77;;;2.57;;
11854;SDS011;5987;53.140;8.904;2022-12-29T03:58:08;2.60;;;2.40;;
11854;SDS011;5987;53.140;8.904;2022-12-29T04:01:12;2.17;;;2.07;;
11854;SDS011;5987;53.140;8.904;2022-12-29T04:04:18;2.23;;;2.13;;
11854;SDS011;5987;53.140;8.904;2022-12-29T04:07:23;17.53;;;9.83;;
11854;SDS011;5987;53.140;8.904;2022-12-29T04:10:27;3.40;;;2.87;;
11854;SDS011;5987;53.140;8.904;2022-12-29T04:13:30;2.70;;;2.50;;
11854;SDS011;5987;53.140;8.904;2022-12-29T04:16:34;3.10;;;2.80;;
11854;SDS011;5987;53.140;8.904;2022-12-29T04:19:40;3.23;;;3.03;;
11854;SDS011;5987;53.140;8.904;2022-12-29T04:22:45;3.53;;;3.23;;
11854;SDS011;5987;53.140;8.904;2022-12-29T04:25:49;3.70;;;3.37;;
11854;SDS011;5987;53.140;8.904;2022-12-29T04:28:53;3.90;;;3.60;;
11854;SDS011;5987;53.140;8.904;2022-12-29T04:31:56;5.33;;;4.83;;
11854;SDS011;5987;53.140;8.904;2022-12-29T04:35:00;4.27;;;3.90;;
11854;SDS011;5987;53.140;8.904;2022-12-29T04:38:05;4.33;;;4.03;;
11854;SDS011;5987;53.140;8.904;2022-12-29T04:41:09;4.27;;;3.87;;
11854;SDS011;5987;53.140;8.904;2022-12-29T04:44:12;4.60;;;4.20;;
11854;SDS011;5987;53.140;8.904;2022-12-29T04:47:18;4.40;;;4.00;;
11854;SDS011;5987;53.140;8.904;2022-12-29T04:50:22;3.90;;;3.60;;
11854;SDS011;5987;53.140;8.904;2022-12-29T04:53:27;5.63;;;4.43;;
11854;SDS011;5987;53.140;8.904;2022-12-29T04:56:31;4.50;;;4.10;;
11854;SDS011;5987;53.140;8.904;2022-12-29T04:59:34;4.90;;;4.10;;
11854;SDS011;5987;53.140;8.904;2022-12-29T05:02:38;4.47;;;3.63;;
11854;SDS011;5987;53.140;8.904;2022-12-29T05:05:42;4.47;;;3.87;;
11854;SDS011;5987;53.140;8.904;2022-12-29T05:08:47;4.40;;;3.47;;
11854;SDS011;5987;53.140;8.904;2022-12-29T05:11:51;3.13;;;2.93;;
11854;SDS011;5987;53.140;8.904;2022-12-29T05:14:54;3.03;;;2.83;;
11854;SDS011;5987;53.140;8.904;2022-12-29T05:17:58;3.83;;;2.97;;
11854;SDS011;5987;53.140;8.904;2022-12-29T05:21:01;3.07;;;2.77;;
11854;SDS011;5987;53.140;8.904;2022-12-29T05:24:07;4.07;;;3.20;;
11854;SDS011;5987;53.140;8.904;2022-12-29T05:27:11;2.93;;;2.73;;
11854;SDS011;5987;53.140;8.904;2022-12-29T05:30:15;3.30;;;3.00;;
11854;SDS011;5987;53.140;8.904;2022-12-29T05:33:18;2.67;;;2.47;;
11854;SDS011;5987;53.140;8.904;2022-12-29T05:36:22;2.60;;;2.40;;
11854;SDS011;5987;53.140;8.904;2022-12-29T05:39:27;2.40;;;1.70;;
11854;SDS011;5987;53.140;8.904;2022-12-29T05:42:31;2.03;;;1.40;;
11854;SDS011;5987;53.140;8.904;2022-12-29T05:45:35;3.73;;;1.37;;
11854;SDS011;5987;53.140;8.904;2022-12-29T05:48:39;2.20;;;1.50;;
11854;SDS011;5987;53.140;8.904;2022-12-29T05:51:43;2.13;;;1.57;;
11854;SDS011;5987;53.140;8.904;2022-12-29T05:54:48;2.30;;;1.50;;
11854;SDS011;5987;53.140;8.904;2022-12-29T05:57:52;1.73;;;1.60;;
11854;SDS011;5987;53.140;8.904;2022-12-29T06:00:55;1.90;;;1.80;;
11854;SDS011;5987;53.140;8.904;2022-12-29T06:03:59;2.87;;;2.60;;
11854;SDS011;5987;53.140;8.904;2022-12-29T06:07:04;4.10;;;2.40;;
11854;SDS011;5987;53.140;8.904;2022-12-29T06:10:09;3.03;;;2.83;;
11854;SDS011;5987;53.140;8.904;2022-12-29T06:13:12;3.47;;;3.17;;
11854;SDS011;5987;53.140;8.904;2022-12-29T06:16:17;4.33;;;3.07;;
11854;SDS011;5987;53.140;8.904;2022-12-29T06:19:21;5.00;;;3.10;;
11854;SDS011;5987;53.140;8.904;2022-12-29T06:22:25;3.47;;;3.10;;
11854;SDS011;5987;53.140;8.904;2022-12-29T06:25:30;3.63;;;3.30;;
11854;SDS011;5987;53.140;8.904;2022-12-29T06:28:35;4.47;;;2.73;;
11854;SDS011;5987;53.140;8.904;2022-12-29T06:31:39;3.47;;;3.17;;
11854;SDS011;5987;53.140;8.904;2022-12-29T06:34:42;3.37;;;3.07;;
11854;SDS011;5987;53.140;8.904;2022-12-29T06:37:47;4.57;;;2.47;;
11854;SDS011;5987;53.140;8.904;2022-12-29T06:40:52;3.47;;;2.70;;
11854;SDS011;5987;53.140;8.904;2022-12-29T06:43:55;3.37;;;3.07;;
11854;SDS011;5987;53.140;8.904;2022-12-29T06:46:59;3.80;;;3.03;;
11854;SDS011;5987;53.140;8.904;2022-12-29T06:50:04;5.70;;;3.20;;
11854;SDS011;5987;53.140;8.904;2022-12-29T06:53:08;3.33;;;2.90;;
11854;SDS011;5987;53.140;8.904;2022-12-29T06:56:13;4.63;;;3.80;;
11854;SDS011;5987;53.140;8.904;2022-12-29T06:59:17;5.50;;;3.70;;
11854;SDS011;5987;53.140;8.904;2022-12-29T07:02:22;3.33;;;2.50;;
11854;SDS011;5987;53.140;8.904;2022-12-29T07:05:27;4.57;;;1.90;;
11854;SDS011;5987;53.140;8.904;2022-12-29T07:08:32;3.97;;;1.77;;
11854;SDS011;5987;53.140;8.904;2022-12-29T07:11:37;2.23;;;2.00;;
11854;SDS011;5987;53.140;8.904;2022-12-29T07:14:41;4.03;;;2.77;;
11854;SDS011;5987;53.140;8.904;2022-12-29T07:17:45;5.47;;;2.30;;
11854;SDS011;5987;53.140;8.904;2022-12-29T07:20:51;3.00;;;2.80;;
11854;SDS011;5987;53.140;8.904;2022-12-29T07:23:54;3.23;;;2.93;;
11854;SDS011;5987;53.140;8.904;2022-12-29T07:26:59;5.27;;;3.03;;
11854;SDS011;5987;53.140;8.904;2022-12-29T07:30:03;3.97;;;2.77;;
11854;SDS011;5987;53.140;8.904;2022-12-29T07:33:10;5.40;;;2.90;;
11854;SDS011;5987;53.140;8.904;2022-12-29T07:36:15;4.80;;;2.77;;
11854;SDS011;5987;53.140;8.904;2022-12-29T07:39:19;3.87;;;2.37;;
11854;SDS011;5987;53.140;8.904;2022-12-29T07:42:24;3.87;;;2.23;;
11854;SDS011;5987;53.140;8.904;2022-12-29T07:45:28;3.90;;;2.03;;
11854;SDS011;5987;53.140;8.904;2022-12-29T07:48:31;3.53;;;1.43;;
11854;SDS011;5987;53.140;8.904;2022-12-29T07:51:37;2.67;;;1.63;;
11854;SDS011;5987;53.140;8.904;2022-12-29T07:54:41;6.70;;;2.17;;
11854;SDS011;5987;53.140;8.904;2022-12-29T07:57:46;1.93;;;1.40;;
11854;SDS011;5987;53.140;8.904;2022-12-29T08:00:52;3.70;;;1.53;;
11854;SDS011;5987;53.140;8.904;2022-12-29T08:03:56;4.40;;;1.53;;
11854;SDS011;5987;53.140;8.904;2022-12-29T08:07:01;1.23;;;1.00;;
11854;SDS011;5987;53.140;8.904;2022-12-29T08:10:05;2.80;;;1.23;;
11854;SDS011;5987;53.140;8.904;2022-12-29T08:13:11;1.50;;;1.30;;
11854;SDS011;5987;53.140;8.904;2022-12-29T08:16:15;4.40;;;1.10;;
11854;SDS011;5987;53.140;8.904;2022-12-29T08:19:18;2.97;;;1.00;;
11854;SDS011;5987;53.140;8.904;2022-12-29T08:22:22;2.50;;;1.20;;
11854;SDS011;5987;53.140;8.904;2022-12-29T08:25:26;3.60;;;1.23;;
11854;SDS011;5987;53.140;8.904;2022-12-29T08:28:32;6.37;;;1.03;;
11854;SDS011;5987;53.140;8.904;2022-12-29T08:31:36;7.17;;;1.43;;
11854;SDS011;5987;53.140;8.904;2022-12-29T08:34:40;5.73;;;1.37;;
11854;SDS011;5987;53.140;8.904;2022-12-29T08:37:44;4.83;;;1.33;;
11854;SDS011;5987;53.140;8.904;2022-12-29T08:40:47;6.03;;;1.10;;
11854;SDS011;5987;53.140;8.904;2022-12-29T08:43:52;5.77;;;1.23;;
11854;SDS011;5987;53.140;8.904;2022-12-29T08:46:56;2.20;;;0.90;;
11854;SDS011;5987;53.140;8.904;2022-12-29T08:50:00;3.13;;;1.20;;
11854;SDS011;5987;53.140;8.904;2022-12-29T08:53:03;3.83;;;1.27;;
11854;SDS011;5987;53.140;8.904;2022-12-29T08:56:08;5.40;;;1.20;;
11854;SDS011;5987;53.140;8.904;2022-12-29T08:59:14;5.47;;;1.17;;
11854;SDS011;5987;53.140;8.904;2022-12-29T09:02:18;4.00;;;1.37;;
11854;SDS011;5987;53.140;8.904;2022-12-29T09:05:25;5.37;;;1.40;;
11854;SDS011;5987;53.140;8.904;2022-12-29T09:08:29;4.57;;;1.30;;
11854;SDS011;5987;53.140;8.904;2022-12-29T09:11:32;2.80;;;1.17;;
11854;SDS011;5987;53.140;8.904;2022-12-29T09:14:37;2.40;;;1.10;;
11854;SDS011;5987;53.140;8.904;2022-12-29T09:17:41;5.00;;;1.20;;
11854;SDS011;5987;53.140;8.904;2022-12-29T09:20:45;3.13;;;1.23;;
11854;SDS011;5987;53.140;8.904;2022-12-29T09:23:49;4.20;;;1.00;;
11854;SDS011;5987;53.140;8.904;2022-12-29T09:26:53;3.87;;;1.17;;
11854;SDS011;5987;53.140;8.904;2022-12-29T09:29:58;5.87;;;1.47;;
11854;SDS011;5987;53.140;8.904;2022-12-29T09:33:02;2.33;;;1.00;;
11854;SDS011;5987;53.140;8.904;2022-12-29T09:36:06;4.10;;;1.17;;
11854;SDS011;5987;53.140;8.904;2022-12-29T09:39:12;4.30;;;1.23;;
11854;SDS011;5987;53.140;8.904;2022-12-29T09:42:18;3.83;;;1.20;;
11854;SDS011;5987;53.140;8.904;2022-12-29T09:45:30;4.30;;;1.33;;
11854;SDS011;5987;53.140;8.904;2022-12-29T09:48:44;3.03;;;1.30;;
11854;SDS011;5987;53.140;8.904;2022-12-29T09:51:57;7.07;;;1.50;;
11854;SDS011;5987;53.140;8.904;2022-12-29T09:55:10;6.90;;;1.27;;
11854;SDS011;5987;53.140;8.904;2022-12-29T09:58:21;3.80;;;1.03;;
11854;SDS011;5987;53.140;8.904;2022-12-29T10:01:34;4.30;;;1.23;;
11854;SDS011;5987;53.140;8.904;2022-12-29T10:04:50;4.33;;;1.10;;
11854;SDS011;5987;53.140;8.904;2022-12-29T10:07:57;5.00;;;1.60;;
11854;SDS011;5987;53.140;8.904;2022-12-29T10:11:22;8.77;;;1.40;;
11854;SDS011;5987;53.140;8.904;2022-12-29T10:14:47;5.57;;;1.10;;
11854;SDS011;5987;53.140;8.904;2022-12-29T10:18:08;6.13;;;1.30;;
11854;SDS011;5987;53.140;8.904;2022-12-29T10:21:28;4.93;;;1.37;;
11854;SDS011;5987;53.140;8.904;2022-12-29T10:24:49;2.87;;;1.23;;
11854;SDS011;5987;53.140;8.904;2022-12-29T10:27:58;2.63;;;0.80;;
11854;SDS011;5987;53.140;8.904;2022-12-29T10:31:11;3.50;;;0.90;;
11854;SDS011;5987;53.140;8.904;2022-12-29T10:34:26;1.50;;;0.60;;
11854;SDS011;5987;53.140;8.904;2022-12-29T10:37:37;3.67;;;0.80;;
11854;SDS011;5987;53.140;8.904;2022-12-29T10:40:49;1.03;;;0.60;;
11854;SDS011;5987;53.140;8.904;2022-12-29T10:44:01;3.63;;;0.80;;
11854;SDS011;5987;53.140;8.904;2022-12-29T10:47:05;2.70;;;0.80;;
11854;SDS011;5987;53.140;8.904;2022-12-29T10:50:17;2.53;;;0.63;;
11854;SDS011;5987;53.140;8.904;2022-12-29T10:53:22;4.07;;;0.90;;
11854;SDS011;5987;53.140;8.904;2022-12-29T10:56:31;1.67;;;0.60;;
11854;SDS011;5987;53.140;8.904;2022-12-29T10:59:39;5.23;;;0.90;;
11854;SDS011;5987;53.140;8.904;2022-12-29T11:02:52;3.83;;;0.70;;
11854;SDS011;5987;53.140;8.904;2022-12-29T11:06:28;2.30;;;0.70;;
11854;SDS011;5987;53.140;8.904;2022-12-29T11:09:34;5.97;;;1.07;;
11854;SDS011;5987;53.140;8.904;2022-12-29T11:12:54;3.17;;;0.93;;
11854;SDS011;5987;53.140;8.904;2022-12-29T11:16:00;3.93;;;1.10;;
11854;SDS011;5987;53.140;8.904;2022-12-29T11:19:04;7.40;;;1.40;;
11854;SDS011;5987;53.140;8.904;2022-12-29T11:22:21;4.37;;;1.10;;
11854;SDS011;5987;53.140;8.904;2022-12-29T11:25:27;1.77;;;0.83;;
11854;SDS011;5987;53.140;8.904;2022-12-29T11:28:31;3.37;;;1.10;;
11854;SDS011;5987;53.140;8.904;2022-12-29T11:31:39;5.93;;;1.40;;
11854;SDS011;5987;53.140;8.904;2022-12-29T11:34:44;2.97;;;1.10;;
11854;SDS011;5987;53.140;8.904;2022-12-29T11:37:53;8.40;;;1.77;;
11854;SDS011;5987;53.140;8.904;2022-12-29T11:41:01;5.50;;;1.03;;
11854;SDS011;5987;53.140;8.904;2022-12-29T11:44:11;4.70;;;1.20;;
11854;SDS011;5987;53.140;8.904;2022-12-29T11:47:21;7.20;;;1.57;;
11854;SDS011;5987;53.140;8.904;2022-12-29T11:50:30;6.73;;;1.53;;
11854;SDS011;5987;53.140;8.904;2022-12-29T11:53:39;6.47;;;1.23;;
11854;SDS011;5987;53.140;8.904;2022-12-29T11:56:49;3.90;;;1.43;;
11854;SDS011;5987;53.140;8.904;2022-12-29T11:59:55;1.97;;;1.60;;
11854;SDS011;5987;53.140;8.904;2022-12-29T12:03:02;9.53;;;1.87;;
11854;SDS011;5987;53.140;8.904;2022-12-29T12:06:14;3.00;;;1.23;;
11854;SDS011;5987;53.140;8.904;2022-12-29T12:09:27;3.47;;;1.20;;
11854;SDS011;5987;53.140;8.904;2022-12-29T12:12:39;4.20;;;1.10;;
11854;SDS011;5987;53.140;8.904;2022-12-29T12:15:54;5.43;;;1.43;;
11854;SDS011;5987;53.140;8.904;2022-12-29T12:19:09;4.63;;;0.90;;
11854;SDS011;5987;53.140;8.904;2022-12-29T12:22:25;6.47;;;1.30;;
11854;SDS011;5987;53.140;8.904;2022-12-29T12:25:38;6.20;;;1.50;;
11854;SDS011;5987;53.140;8.904;2022-12-29T12:28:54;7.90;;;1.37;;
11854;SDS011;5987;53.140;8.904;2022-12-29T12:32:04;5.03;;;1.10;;
11854;SDS011;5987;53.140;8.904;2022-12-29T12:35:20;5.47;;;1.20;;
11854;SDS011;5987;53.140;8.904;2022-12-29T12:38:40;3.43;;;1.10;;
11854;SDS011;5987;53.140;8.904;2022-12-29T12:42:00;4.13;;;0.83;;
11854;SDS011;5987;53.140;8.904;2022-12-29T12:45:35;9.40;;;1.53;;
11854;SDS011;5987;53.140;8.904;2022-12-29T12:48:55;6.80;;;1.67;;
11854;SDS011;5987;53.140;8.904;2022-12-29T12:52:36;5.20;;;1.13;;
11854;SDS011;5987;53.140;8.904;2022-12-29T12:56:03;6.50;;;1.43;;
11854;SDS011;5987;53.140;8.904;2022-12-29T12:59:46;4.27;;;1.00;;
11854;SDS011;5987;53.140;8.904;2022-12-29T13:03:04;1.97;;;1.00;;
11854;SDS011;5987;53.140;8.904;2022-12-29T13:06:18;6.17;;;1.13;;
11854;SDS011;5987;53.140;8.904;2022-12-29T13:09:42;3.30;;;1.20;;
11854;SDS011;5987;53.140;8.904;2022-12-29T13:13:06;5.30;;;1.10;;
11854;SDS011;5987;53.140;8.904;2022-12-29T13:16:40;2.27;;;0.97;;
11854;SDS011;5987;53.140;8.904;2022-12-29T13:19:53;3.53;;;1.33;;
11854;SDS011;5987;53.140;8.904;2022-12-29T13:23:13;4.90;;;1.73;;
11854;SDS011;5987;53.140;8.904;2022-12-29T13:26:28;2.40;;;1.17;;
11854;SDS011;5987;53.140;8.904;2022-12-29T13:29:43;2.97;;;0.90;;
11854;SDS011;5987;53.140;8.904;2022-12-29T13:33:05;4.10;;;1.00;;
11854;SDS011;5987;53.140;8.904;2022-12-29T13:36:23;3.13;;;1.13;;
11854;SDS011;5987;53.140;8.904;2022-12-29T13:39:33;4.23;;;1.23;;
11854;SDS011;5987;53.140;8.904;2022-12-29T13:42:43;3.97;;;1.00;;
11854;SDS011;5987;53.140;8.904;2022-12-29T13:45:52;2.83;;;0.93;;
11854;SDS011;5987;53.140;8.904;2022-12-29T13:49:06;4.03;;;1.30;;
11854;SDS011;5987;53.140;8.904;2022-12-29T13:52:18;5.10;;;1.37;;
11854;SDS011;5987;53.140;8.904;2022-12-29T13:55:37;2.90;;;1.27;;
11854;SDS011;5987;53.140;8.904;2022-12-29T13:58:53;5.87;;;1.40;;
11854;SDS011;5987;53.140;8.904;2022-12-29T14:02:09;3.53;;;1.60;;
11854;SDS011;5987;53.140;8.904;2022-12-29T14:05:29;4.70;;;1.43;;
11854;SDS011;5987;53.140;8.904;2022-12-29T14:08:34;4.17;;;1.50;;
11854;SDS011;5987;53.140;8.904;2022-12-29T14:11:38;6.77;;;1.50;;
11854;SDS011;5987;53.140;8.904;2022-12-29T14:14:43;3.30;;;1.40;;
11854;SDS011;5987;53.140;8.904;2022-12-29T14:17:59;8.07;;;1.60;;
11854;SDS011;5987;53.140;8.904;2022-12-29T14:21:10;5.77;;;1.23;;
11854;SDS011;5987;53.140;8.904;2022-12-29T14:24:32;5.57;;;1.43;;
11854;SDS011;5987;53.140;8.904;2022-12-29T14:27:51;6.73;;;1.23;;
11854;SDS011;5987;53.140;8.904;2022-12-29T14:30:56;6.03;;;1.50;;
11854;SDS011;5987;53.140;8.904;2022-12-29T14:37:35;4.83;;;1.43;;
11854;SDS011;5987;53.140;8.904;2022-12-29T14:40:40;3.80;;;1.40;;
11854;SDS011;5987;53.140;8.904;2022-12-29T14:43:51;5.03;;;1.30;;
11854;SDS011;5987;53.140;8.904;2022-12-29T14:47:00;3.57;;;1.27;;
11854;SDS011;5987;53.140;8.904;2022-12-29T14:50:12;4.93;;;1.60;;
11854;SDS011;5987;53.140;8.904;2022-12-29T14:53:44;4.07;;;1.50;;
11854;SDS011;5987;53.140;8.904;2022-12-29T14:56:50;4.90;;;1.30;;
11854;SDS011;5987;53.140;8.904;2022-12-29T14:59:55;6.33;;;1.63;;
11854;SDS011;5987;53.140;8.904;2022-12-29T15:03:12;3.53;;;1.33;;
11854;SDS011;5987;53.140;8.904;2022-12-29T15:06:23;3.40;;;1.60;;
11854;SDS011;5987;53.140;8.904;2022-12-29T15:09:33;5.23;;;1.10;;
11854;SDS011;5987;53.140;8.904;2022-12-29T15:12:45;7.90;;;2.03;;
11854;SDS011;5987;53.140;8.904;2022-12-29T15:15:55;4.23;;;1.77;;
11854;SDS011;5987;53.140;8.904;2022-12-29T15:18:59;6.43;;;2.20;;
11854;SDS011;5987;53.140;8.904;2022-12-29T15:22:03;5.37;;;1.63;;
11854;SDS011;5987;53.140;8.904;2022-12-29T15:25:13;8.07;;;1.73;;
11854;SDS011;5987;53.140;8.904;2022-12-29T15:28:19;7.47;;;2.00;;
11854;SDS011;5987;53.140;8.904;2022-12-29T15:31:24;3.83;;;1.50;;
11854;SDS011;5987;53.140;8.904;2022-12-29T15:34:31;6.50;;;1.70;;
11854;SDS011;5987;53.140;8.904;2022-12-29T15:37:35;4.20;;;1.80;;
11854;SDS011;5987;53.140;8.904;2022-12-29T15:40:41;5.53;;;2.13;;
11854;SDS011;5987;53.140;8.904;2022-12-29T15:43:51;6.67;;;1.87;;
11854;SDS011;5987;53.140;8.904;2022-12-29T15:47:11;5.20;;;1.67;;
11854;SDS011;5987;53.140;8.904;2022-12-29T15:50:22;7.23;;;2.07;;
11854;SDS011;5987;53.140;8.904;2022-12-29T15:53:30;8.00;;;2.20;;
11854;SDS011;5987;53.140;8.904;2022-12-29T15:56:37;6.37;;;2.07;;
11854;SDS011;5987;53.140;8.904;2022-12-29T15:59:44;5.07;;;2.00;;
11854;SDS011;5987;53.140;8.904;2022-12-29T16:02:50;7.07;;;1.93;;
11854;SDS011;5987;53.140;8.904;2022-12-29T16:05:56;4.00;;;1.87;;
11854;SDS011;5987;53.140;8.904;2022-12-29T16:09:14;8.10;;;2.07;;
11854;SDS011;5987;53.140;8.904;2022-12-29T16:12:21;5.53;;;2.00;;
11854;SDS011;5987;53.140;8.904;2022-12-29T16:15:29;7.37;;;1.70;;
11854;SDS011;5987;53.140;8.904;2022-12-29T16:18:33;8.33;;;2.10;;
11854;SDS011;5987;53.140;8.904;2022-12-29T16:21:40;5.27;;;1.77;;
11854;SDS011;5987;53.140;8.904;2022-12-29T16:24:46;6.97;;;2.60;;
11854;SDS011;5987;53.140;8.904;2022-12-29T16:27:52;4.90;;;2.10;;
11854;SDS011;5987;53.140;8.904;2022-12-29T16:30:59;3.90;;;2.30;;
11854;SDS011;5987;53.140;8.904;2022-12-29T16:34:11;5.27;;;2.10;;
11854;SDS011;5987;53.140;8.904;2022-12-29T16:37:26;7.73;;;2.07;;
11854;SDS011;5987;53.140;8.904;2022-12-29T16:40:37;10.13;;;2.40;;
11854;SDS011;5987;53.140;8.904;2022-12-29T16:47:19;10.73;;;2.37;;
11854;SDS011;5987;53.140;8.904;2022-12-29T16:50:24;7.40;;;2.50;;
11854;SDS011;5987;53.140;8.904;2022-12-29T16:53:31;8.47;;;3.43;;
11854;SDS011;5987;53.140;8.904;2022-12-29T16:56:40;5.63;;;2.03;;
11854;SDS011;5987;53.140;8.904;2022-12-29T16:59:49;7.60;;;2.33;;
11854;SDS011;5987;53.140;8.904;2022-12-29T17:02:58;5.87;;;2.70;;
11854;SDS011;5987;53.140;8.904;2022-12-29T17:06:04;5.13;;;2.70;;
11854;SDS011;5987;53.140;8.904;2022-12-29T17:09:18;7.03;;;3.40;;
11854;SDS011;5987;53.140;8.904;2022-12-29T17:12:25;8.00;;;3.03;;
11854;SDS011;5987;53.140;8.904;2022-12-29T17:15:33;7.37;;;2.83;;
11854;SDS011;5987;53.140;8.904;2022-12-29T17:18:37;9.10;;;3.13;;
11854;SDS011;5987;53.140;8.904;2022-12-29T17:21:41;5.73;;;2.93;;
11854;SDS011;5987;53.140;8.904;2022-12-29T17:24:45;7.80;;;3.70;;
11854;SDS011;5987;53.140;8.904;2022-12-29T17:27:49;11.30;;;3.57;;
11854;SDS011;5987;53.140;8.904;2022-12-29T17:30:59;7.40;;;3.33;;
11854;SDS011;5987;53.140;8.904;2022-12-29T17:34:06;6.20;;;3.67;;
11854;SDS011;5987;53.140;8.904;2022-12-29T17:37:30;9.47;;;3.63;;
11854;SDS011;5987;53.140;8.904;2022-12-29T17:40:37;9.20;;;3.83;;
11854;SDS011;5987;53.140;8.904;2022-12-29T17:43:40;11.80;;;3.43;;
11854;SDS011;5987;53.140;8.904;2022-12-29T17:46:46;7.47;;;3.47;;
11854;SDS011;5987;53.140;8.904;2022-12-29T17:49:50;8.33;;;3.60;;
11854;SDS011;5987;53.140;8.904;2022-12-29T17:52:55;7.30;;;3.57;;
11854;SDS011;5987;53.140;8.904;2022-12-29T17:56:02;9.93;;;3.97;;
11854;SDS011;5987;53.140;8.904;2022-12-29T17:59:08;11.47;;;4.53;;
11854;SDS011;5987;53.140;8.904;2022-12-29T18:02:24;8.07;;;3.60;;
11854;SDS011;5987;53.140;8.904;2022-12-29T18:05:31;8.67;;;4.13;;
11854;SDS011;5987;53.140;8.904;2022-12-29T18:08:35;11.87;;;4.73;;
11854;SDS011;5987;53.140;8.904;2022-12-29T18:11:41;11.10;;;5.07;;
11854;SDS011;5987;53.140;8.904;2022-12-29T18:14:47;13.87;;;4.07;;
11854;SDS011;5987;53.140;8.904;2022-12-29T18:17:53;6.73;;;3.67;;
11854;SDS011;5987;53.140;8.904;2022-12-29T18:21:02;10.47;;;4.23;;
11854;SDS011;5987;53.140;8.904;2022-12-29T18:24:09;9.17;;;4.17;;
11854;SDS011;5987;53.140;8.904;2022-12-29T18:27:16;11.10;;;4.43;;
11854;SDS011;5987;53.140;8.904;2022-12-29T18:30:23;8.67;;;3.80;;
11854;SDS011;5987;53.140;8.904;2022-12-29T18:33:28;11.50;;;4.60;;
11854;SDS011;5987;53.140;8.904;2022-12-29T18:36:33;8.20;;;3.30;;
11854;SDS011;5987;53.140;8.904;2022-12-29T18:39:36;8.27;;;3.27;;
11854;SDS011;5987;53.140;8.904;2022-12-29T18:42:40;6.23;;;2.80;;
11854;SDS011;5987;53.140;8.904;2022-12-29T18:45:44;7.90;;;2.83;;
11854;SDS011;5987;53.140;8.904;2022-12-29T18:48:50;8.33;;;3.10;;
11854;SDS011;5987;53.140;8.904;2022-12-29T18:51:54;5.83;;;2.63;;
11854;SDS011;5987;53.140;8.904;2022-12-29T18:54:58;4.47;;;2.43;;
11854;SDS011;5987;53.140;8.904;2022-12-29T18:58:01;6.20;;;2.67;;
11854;SDS011;5987;53.140;8.904;2022-12-29T19:01:05;9.03;;;2.70;;
11854;SDS011;5987;53.140;8.904;2022-12-29T19:04:21;4.00;;;2.13;;
11854;SDS011;5987;53.140;8.904;2022-12-29T19:07:25;5.90;;;2.30;;
11854;SDS011;5987;53.140;8.904;2022-12-29T19:10:29;4.23;;;1.73;;
11854;SDS011;5987;53.140;8.904;2022-12-29T19:13:33;4.93;;;2.27;;
11854;SDS011;5987;53.140;8.904;2022-12-29T19:16:37;2.10;;;1.87;;
11854;SDS011;5987;53.140;8.904;2022-12-29T19:19:43;3.70;;;1.43;;
11854;SDS011;5987;53.140;8.904;2022-12-29T19:22:47;4.63;;;1.90;;
11854;SDS011;5987;53.140;8.904;2022-12-29T19:25:51;4.10;;;2.30;;
11854;SDS011;5987;53.140;8.904;2022-12-29T19:28:56;3.57;;;2.30;;